Boonville, IN

9:35 PM CST on February 09, 2016 (GMT -0600)
Boonville 1S | | Change Station
CLOSE
Current Station
Personal Weather Station
Location: Boonville, IN
Elevation: 400 ft
Nearby Weather Stations
Active Advisory: Special Statement

Elev 400 ft 38.03 °N, 87.27 °W | Updated 3 seconds ago

Overcast
Overcast
18.9 °F
Feels Like 11 °F
N
6.0
Wind Variable Wind from West
Gusts 6.0 mph

Today
High -- | Low -- °F
--% Chance of Precip.
Yesterday
High -- | Low -- °F
Precip. -- in
Pressure 30.10 in
Visibility 10.0 miles
Clouds Overcast 4000 ft
Windchill 11 °F
Dew Point 14 °F
Humidity 80%
Rainfall 0.00 in
Snow Depth Not available.
6:46 AM 5:20 PM
Waxing Crescent, 3% visible
METAR KEVV 100254Z 29005KT 10SM OVC040 M06/M12 A3008 RMK AO2 SLP191 60001 T10561122 50008
Pressure 30.10 in
Visibility 10.0 miles
Clouds Overcast 4000 ft
Windchill 11 °F
Dew Point 14 °F
Humidity 80%
Rainfall 0.00 in
Snow Depth Not available.
6:46 AM 5:20 PM
Waxing Crescent, 3% visible
METAR KEVV 100254Z 29005KT 10SM OVC040 M06/M12 A3008 RMK AO2 SLP191 60001 T10561122 50008

10-Day Weather Forecast

Almanac

Astronomy

Feb. 09, 2016 Rise Set
Actual Time
Civil Twilight
Nautical Twilight
Astronomical Twilight
Moon
Length of Visible Light
Length of Day
Tomorrow will be .
, % of the Moon is Illuminated

Today's Extremes

State Highs State Lows

Community

WunderPhotos

Upload Photos

1,891,792 photos uploaded!

WunderBlog® & News

Nearby

Air Quality

  Air Quality AQ Index Pollutant
Not available.

Snow Depth

Station Depth Elevation

Earthquake Activity

City Distance Mag. Time & Date
Minimum magnitude displayed is 2.5.

Coastal Water Temperatures

Place Temperature

Stations

Nearby Weather Stations

Station Location Temp. Windchill Dew Point Humidity Wind Precip. Elev Updated Type
                   

Watches & Warnings

Special Statement
Issued: 2:55 PM CST Feb. 9, 2016 – National Weather Service

... Slick spots will be possible on some area roadways into the
evening hours...

Continuing scattered light snow showers or flurries... mainly along
and east of the Mississippi River... will leave just enough
moisture on roadtop surfaces that freezing temperatures will turn
into icy slick spots on untreated roadways. Be aware of this
possibility as we head into the evening and the commuting hours.
Drive slowly and take it easy braking and turning just in case
there is a slick spot you cannot necessarily see.



255 PM CST Tue Feb 9 2016

... Slick spots will be possible on some area roadways into the
evening hours...

Continuing scattered light snow showers or flurries... mainly along
and east of the Mississippi River... will leave just enough
moisture on roadtop surfaces that freezing temperatures will turn
into icy slick spots on untreated roadways. Be aware of this
possibility as we head into the evening and the commuting hours.
Drive slowly and take it easy braking and turning just in case
there is a slick spot you cannot necessarily see.